sensor_id;sensor_type;location;lat;lon;timestamp;pressure;altitude;pressure_sealevel;temperature;humidity
69911;BME280;63555;49.920;17.868;2023-01-04T00:04:01;99997.72;;;-2.74;81.96
69911;BME280;63555;49.920;17.868;2023-01-04T00:09:01;99993.41;;;-2.75;82.25
69911;BME280;63555;49.920;17.868;2023-01-04T00:14:01;99999.44;;;-2.76;82.32
69911;BME280;63555;49.920;17.868;2023-01-04T00:19:02;99996.88;;;-2.79;81.88
69911;BME280;63555;49.920;17.868;2023-01-04T00:24:02;99999.47;;;-2.86;81.90
69911;BME280;63555;49.920;17.868;2023-01-04T00:29:04;99995.16;;;-2.88;81.93
69911;BME280;63555;49.920;17.868;2023-01-04T00:34:06;99997.75;;;-2.91;81.71
69911;BME280;63555;49.920;17.868;2023-01-04T00:39:07;99991.72;;;-2.91;81.75
69911;BME280;63555;49.920;17.868;2023-01-04T00:44:13;99994.31;;;-2.96;81.74
69911;BME280;63555;49.920;17.868;2023-01-04T00:49:14;99990.88;;;-3.02;81.49
69911;BME280;63555;49.920;17.868;2023-01-04T00:54:15;99993.47;;;-3.07;81.94
69911;BME280;63555;49.920;17.868;2023-01-04T00:59:18;99993.47;;;-3.08;81.93
69911;BME280;63555;49.920;17.868;2023-01-04T01:04:21;99997.78;;;-3.09;82.18
69911;BME280;63555;49.920;17.868;2023-01-04T01:09:22;99988.31;;;-3.13;81.79
69911;BME280;63555;49.920;17.868;2023-01-04T01:14:24;99989.19;;;-3.18;81.90
69911;BME280;63555;49.920;17.868;2023-01-04T01:19:26;100000.38;;;-3.26;81.80
69911;BME280;63555;49.920;17.868;2023-01-04T01:24:27;100011.53;;;-3.31;81.84
69911;BME280;63555;49.920;17.868;2023-01-04T01:29:27;99997.78;;;-3.39;81.62
69911;BME280;63555;49.920;17.868;2023-01-04T01:34:28;99996.94;;;-3.44;81.52
69911;BME280;63555;49.920;17.868;2023-01-04T01:39:28;100002.03;;;-3.47;81.95
69911;BME280;63555;49.920;17.868;2023-01-04T01:49:43;100004.63;;;-3.49;82.01
69911;BME280;63555;49.920;17.868;2023-01-04T01:54:47;99989.16;;;-3.50;82.00
69911;BME280;63555;49.920;17.868;2023-01-04T01:59:50;99980.56;;;-3.51;81.94
69911;BME280;63555;49.920;17.868;2023-01-04T02:04:53;99978.84;;;-3.52;81.75
69911;BME280;63555;49.920;17.868;2023-01-04T02:09:55;99967.66;;;-3.53;81.71
69911;BME280;63555;49.920;17.868;2023-01-04T02:14:56;99954.78;;;-3.51;81.76
69911;BME280;63555;49.920;17.868;2023-01-04T02:41:01;99950.50;;;-3.46;81.69
69911;BME280;63555;49.920;17.868;2023-01-04T02:46:12;99949.63;;;-3.51;81.96
69911;BME280;63555;49.920;17.868;2023-01-04T02:51:28;99947.91;;;-3.58;82.04
69911;BME280;63555;49.920;17.868;2023-01-04T02:56:45;99939.31;;;-3.65;82.08
69911;BME280;63555;49.920;17.868;2023-01-04T03:12:53;99920.41;;;-3.71;82.22
69911;BME280;63555;49.920;17.868;2023-01-04T03:18:00;99923.00;;;-3.71;82.24
69911;BME280;63555;49.920;17.868;2023-01-04T03:23:07;99919.56;;;-3.70;82.27
69911;BME280;63555;49.920;17.868;2023-01-04T03:28:32;99909.25;;;-3.72;82.00
69911;BME280;63555;49.920;17.868;2023-01-04T03:33:51;99905.81;;;-3.72;81.91
69911;BME280;63555;49.920;17.868;2023-01-04T03:45:02;99889.50;;;-3.83;81.97
69911;BME280;63555;49.920;17.868;2023-01-04T03:50:29;99893.78;;;-3.87;81.86
69911;BME280;63555;49.920;17.868;2023-01-04T03:55:33;99876.59;;;-3.91;81.81
69911;BME280;63555;49.920;17.868;2023-01-04T04:00:35;99880.91;;;-3.93;82.14
69911;BME280;63555;49.920;17.868;2023-01-04T04:05:38;99874.88;;;-3.97;81.91
69911;BME280;63555;49.920;17.868;2023-01-04T04:10:59;99886.91;;;-4.00;82.14
69911;BME280;63555;49.920;17.868;2023-01-04T04:16:20;99876.59;;;-4.00;81.90
69911;BME280;63555;49.920;17.868;2023-01-04T04:21:20;99870.59;;;-4.01;82.06
69911;BME280;63555;49.920;17.868;2023-01-04T04:26:21;99856.00;;;-4.03;82.14
69911;BME280;63555;49.920;17.868;2023-01-04T04:31:22;99849.97;;;-4.05;82.20
69911;BME280;63555;49.920;17.868;2023-01-04T04:36:22;99850.84;;;-4.09;81.83
69911;BME280;63555;49.920;17.868;2023-01-04T04:41:23;99849.97;;;-4.14;81.77
69911;BME280;63555;49.920;17.868;2023-01-04T04:46:39;99832.81;;;-4.09;82.15
69911;BME280;63555;49.920;17.868;2023-01-04T04:51:40;99817.34;;;-4.05;82.23
69911;BME280;63555;49.920;17.868;2023-01-04T04:56:41;99812.19;;;-3.85;83.30
69911;BME280;63555;49.920;17.868;2023-01-04T05:01:41;99814.59;;;-3.01;85.98
69911;BME280;63555;49.920;17.868;2023-01-04T05:06:42;99809.78;;;-2.12;85.93
69911;BME280;63555;49.920;17.868;2023-01-04T05:11:42;99805.75;;;-1.47;85.83
69911;BME280;63555;49.920;17.868;2023-01-04T05:17:02;99797.63;;;-1.14;84.86
69911;BME280;63555;49.920;17.868;2023-01-04T05:22:02;99792.31;;;-1.03;84.51
69911;BME280;63555;49.920;17.868;2023-01-04T05:27:02;99786.09;;;-0.85;84.40
69911;BME280;63555;49.920;17.868;2023-01-04T05:32:03;99780.03;;;-0.84;84.19
69911;BME280;63555;49.920;17.868;2023-01-04T05:37:03;99773.16;;;-0.88;84.10
69911;BME280;63555;49.920;17.868;2023-01-04T05:42:04;99767.09;;;-0.86;84.51
69911;BME280;63555;49.920;17.868;2023-01-04T05:47:22;99763.41;;;-0.70;84.75
69911;BME280;63555;49.920;17.868;2023-01-04T05:52:23;99765.84;;;-0.59;84.28
69911;BME280;63555;49.920;17.868;2023-01-04T05:57:24;99757.16;;;-0.55;84.58
69911;BME280;63555;49.920;17.868;2023-01-04T06:02:27;99756.06;;;-0.39;84.78
69911;BME280;63555;49.920;17.868;2023-01-04T06:07:28;99750.25;;;-0.02;85.42
69911;BME280;63555;49.920;17.868;2023-01-04T06:12:29;99764.63;;;0.19;85.10
69911;BME280;63555;49.920;17.868;2023-01-04T06:17:29;99736.84;;;0.25;84.58
69911;BME280;63555;49.920;17.868;2023-01-04T06:22:29;99735.91;;;0.29;84.66
69911;BME280;63555;49.920;17.868;2023-01-04T06:27:31;99730.53;;;0.39;85.04
69911;BME280;63555;49.920;17.868;2023-01-04T06:32:32;99731.22;;;0.48;84.77
69911;BME280;63555;49.920;17.868;2023-01-04T06:37:32;99733.88;;;0.45;84.54
69911;BME280;63555;49.920;17.868;2023-01-04T06:42:32;99741.78;;;0.39;84.39
69911;BME280;63555;49.920;17.868;2023-01-04T06:47:45;99754.09;;;0.28;84.08
69911;BME280;63555;49.920;17.868;2023-01-04T06:52:47;99760.28;;;0.21;84.12
69911;BME280;63555;49.920;17.868;2023-01-04T06:57:47;99755.25;;;0.12;84.20
69911;BME280;63555;49.920;17.868;2023-01-04T07:02:47;99752.81;;;0.03;84.59
69911;BME280;63555;49.920;17.868;2023-01-04T07:07:48;99743.38;;;-0.03;84.55
69911;BME280;63555;49.920;17.868;2023-01-04T07:12:48;99744.25;;;-0.04;84.98
69911;BME280;63555;49.920;17.868;2023-01-04T07:17:49;99751.09;;;0.02;85.12
69911;BME280;63555;49.920;17.868;2023-01-04T07:22:50;99755.25;;;0.12;85.07
69911;BME280;63555;49.920;17.868;2023-01-04T07:27:51;99747.31;;;0.19;84.99
69911;BME280;63555;49.920;17.868;2023-01-04T07:32:53;99747.38;;;0.16;84.48
69911;BME280;63555;49.920;17.868;2023-01-04T07:37:54;99750.78;;;0.20;84.89
69911;BME280;63555;49.920;17.868;2023-01-04T07:42:58;99741.03;;;0.32;84.97
69911;BME280;63555;49.920;17.868;2023-01-04T07:47:58;99734.72;;;0.46;85.14
69911;BME280;63555;49.920;17.868;2023-01-04T07:53:00;99720.78;;;0.51;85.87
69911;BME280;63555;49.920;17.868;2023-01-04T07:58:00;99721.63;;;0.52;87.08
69911;BME280;63555;49.920;17.868;2023-01-04T08:03:01;99723.31;;;0.54;87.81
69911;BME280;63555;49.920;17.868;2023-01-04T08:08:01;99718.84;;;0.61;88.42
69911;BME280;63555;49.920;17.868;2023-01-04T08:13:02;99714.31;;;0.72;88.95
69911;BME280;63555;49.920;17.868;2023-01-04T08:18:02;99712.38;;;0.82;89.35
69911;BME280;63555;49.920;17.868;2023-01-04T08:23:02;99701.78;;;0.92;89.31
69911;BME280;63555;49.920;17.868;2023-01-04T08:28:03;99708.47;;;1.04;89.61
69911;BME280;63555;49.920;17.868;2023-01-04T08:33:12;99697.88;;;1.13;89.85
69911;BME280;63555;49.920;17.868;2023-01-04T08:38:13;99697.63;;;1.24;89.60
69911;BME280;63555;49.920;17.868;2023-01-04T08:43:13;99691.47;;;1.28;90.06
69911;BME280;63555;49.920;17.868;2023-01-04T08:48:14;99699.06;;;1.36;89.78
69911;BME280;63555;49.920;17.868;2023-01-04T08:53:14;99697.09;;;1.47;90.18
69911;BME280;63555;49.920;17.868;2023-01-04T08:58:14;99695.13;;;1.56;90.34
69911;BME280;63555;49.920;17.868;2023-01-04T09:03:15;99709.75;;;1.60;90.18
69911;BME280;63555;49.920;17.868;2023-01-04T09:08:15;99687.06;;;1.67;90.45
69911;BME280;63555;49.920;17.868;2023-01-04T09:13:16;99689.47;;;1.76;90.46
69911;BME280;63555;49.920;17.868;2023-01-04T09:18:16;99674.03;;;2.03;91.06
69911;BME280;63555;49.920;17.868;2023-01-04T09:23:16;99669.00;;;2.90;92.13
69911;BME280;63555;49.920;17.868;2023-01-04T09:28:16;99650.25;;;4.37;92.48
69911;BME280;63555;49.920;17.868;2023-01-04T09:33:17;99624.72;;;5.56;92.06
69911;BME280;63555;49.920;17.868;2023-01-04T09:38:17;99628.16;;;6.58;90.13
69911;BME280;63555;49.920;17.868;2023-01-04T09:43:20;99625.13;;;7.94;88.11
69911;BME280;63555;49.920;17.868;2023-01-04T09:48:26;99602.78;;;8.53;84.07
69911;BME280;63555;49.920;17.868;2023-01-04T09:53:39;99599.94;;;9.20;82.59
69911;BME280;63555;49.920;17.868;2023-01-04T09:58:43;99581.50;;;9.66;80.38
69911;BME280;63555;49.920;17.868;2023-01-04T10:04:12;99567.88;;;10.32;78.43
69911;BME280;63555;49.920;17.868;2023-01-04T10:09:15;99532.28;;;10.95;76.69
69911;BME280;63555;49.920;17.868;2023-01-04T10:14:26;99537.00;;;10.90;74.33
69911;BME280;63555;49.920;17.868;2023-01-04T10:19:36;99528.78;;;10.67;74.31
69911;BME280;63555;49.920;17.868;2023-01-04T10:25:06;99520.69;;;9.85;71.33
69911;BME280;63555;49.920;17.868;2023-01-04T10:35:25;99502.84;;;8.21;73.79
69911;BME280;63555;49.920;17.868;2023-01-04T10:40:32;99479.56;;;7.65;71.92
69911;BME280;63555;49.920;17.868;2023-01-04T10:45:45;99455.69;;;7.19;73.06
69911;BME280;63555;49.920;17.868;2023-01-04T10:50:57;99451.09;;;7.57;73.65
69911;BME280;63555;49.920;17.868;2023-01-04T10:56:17;99424.25;;;8.80;70.20
69911;BME280;63555;49.920;17.868;2023-01-04T11:06:45;99389.31;;;9.22;66.18
69911;BME280;63555;49.920;17.868;2023-01-04T11:11:47;99382.47;;;8.59;66.34
69911;BME280;63555;49.920;17.868;2023-01-04T11:16:50;99371.09;;;8.59;66.32
69911;BME280;63555;49.920;17.868;2023-01-04T11:22:14;99360.31;;;8.34;65.27
69911;BME280;63555;49.920;17.868;2023-01-04T11:27:19;99351.53;;;8.49;64.05
69911;BME280;63555;49.920;17.868;2023-01-04T11:37:36;99373.84;;;8.10;63.76
69911;BME280;63555;49.920;17.868;2023-01-04T11:42:38;99355.47;;;7.94;64.33
69911;BME280;63555;49.920;17.868;2023-01-04T11:47:50;99352.47;;;7.69;64.26
69911;BME280;63555;49.920;17.868;2023-01-04T11:52:51;99337.16;;;7.77;64.70
69911;BME280;63555;49.920;17.868;2023-01-04T11:58:09;99319.84;;;8.66;64.20
69911;BME280;63555;49.920;17.868;2023-01-04T12:03:12;99313.84;;;9.37;61.73
69911;BME280;63555;49.920;17.868;2023-01-04T12:08:33;99298.22;;;8.77;61.34
69911;BME280;63555;49.920;17.868;2023-01-04T12:13:35;99305.13;;;8.18;62.29
69911;BME280;63555;49.920;17.868;2023-01-04T12:18:40;99306.81;;;7.56;63.86
69911;BME280;63555;49.920;17.868;2023-01-04T12:23:41;99305.34;;;7.19;63.99
69911;BME280;63555;49.920;17.868;2023-01-04T12:28:50;99292.13;;;6.87;65.40
69911;BME280;63555;49.920;17.868;2023-01-04T12:54:58;99279.66;;;5.68;68.12
69911;BME280;63555;49.920;17.868;2023-01-04T13:00:11;99265.25;;;5.60;68.90
69911;BME280;63555;49.920;17.868;2023-01-04T13:05:28;99259.53;;;5.52;69.33
69911;BME280;63555;49.920;17.868;2023-01-04T13:16:08;99210.22;;;5.44;70.54
69911;BME280;63555;49.920;17.868;2023-01-04T13:42:36;99157.28;;;5.39;73.39
69911;BME280;63555;49.920;17.868;2023-01-04T13:47:40;99132.28;;;5.33;73.13
69911;BME280;63555;49.920;17.868;2023-01-04T13:52:43;99115.97;;;5.28;73.34
69911;BME280;63555;49.920;17.868;2023-01-04T13:57:58;99088.47;;;5.20;74.35
69911;BME280;63555;49.920;17.868;2023-01-04T14:03:35;99065.22;;;5.13;74.78
69911;BME280;63555;49.920;17.868;2023-01-04T14:08:40;99044.69;;;5.06;75.24
69911;BME280;63555;49.920;17.868;2023-01-04T14:13:46;99056.22;;;5.02;75.76
69911;BME280;63555;49.920;17.868;2023-01-04T14:18:47;99058.97;;;4.99;75.54
69911;BME280;63555;49.920;17.868;2023-01-04T14:23:47;99055.44;;;5.00;75.67
69911;BME280;63555;49.920;17.868;2023-01-04T14:28:47;99064.91;;;5.02;76.21
69911;BME280;63555;49.920;17.868;2023-01-04T14:33:49;99046.53;;;5.04;75.87
69911;BME280;63555;49.920;17.868;2023-01-04T14:44:13;99048.41;;;5.19;75.72
69911;BME280;63555;49.920;17.868;2023-01-04T14:49:15;99046.81;;;5.34;75.68
69911;BME280;63555;49.920;17.868;2023-01-04T14:54:16;99028.06;;;5.43;75.68
69911;BME280;63555;49.920;17.868;2023-01-04T14:59:17;99002.44;;;5.50;75.05
69911;BME280;63555;49.920;17.868;2023-01-04T15:04:17;98991.59;;;5.57;75.73
69911;BME280;63555;49.920;17.868;2023-01-04T15:09:18;98984.34;;;5.62;74.96
69911;BME280;63555;49.920;17.868;2023-01-04T15:14:18;99003.44;;;5.64;74.74
69911;BME280;63555;49.920;17.868;2023-01-04T15:19:18;99007.72;;;5.65;74.82
69911;BME280;63555;49.920;17.868;2023-01-04T15:24:19;99005.88;;;5.67;74.62
69911;BME280;63555;49.920;17.868;2023-01-04T15:29:19;98973.41;;;5.71;74.54
69911;BME280;63555;49.920;17.868;2023-01-04T15:34:20;98958.13;;;5.80;74.52
69911;BME280;63555;49.920;17.868;2023-01-04T15:39:22;98982.09;;;5.89;73.94
69911;BME280;63555;49.920;17.868;2023-01-04T15:44:22;99004.22;;;5.99;73.83
69911;BME280;63555;49.920;17.868;2023-01-04T15:49:22;98994.34;;;6.04;73.34
69911;BME280;63555;49.920;17.868;2023-01-04T15:54:24;99001.91;;;6.11;73.17
69911;BME280;63555;49.920;17.868;2023-01-04T15:59:24;99021.75;;;6.15;73.55
69911;BME280;63555;49.920;17.868;2023-01-04T16:04:25;99021.69;;;6.16;73.88
69911;BME280;63555;49.920;17.868;2023-01-04T16:09:27;99019.91;;;6.17;73.34
69911;BME280;63555;49.920;17.868;2023-01-04T16:14:27;98998.13;;;6.16;73.03
69911;BME280;63555;49.920;17.868;2023-01-04T16:19:28;98978.94;;;6.16;73.95
69911;BME280;63555;49.920;17.868;2023-01-04T16:24:31;98968.63;;;6.13;73.51
69911;BME280;63555;49.920;17.868;2023-01-04T16:29:31;98954.03;;;6.09;73.84
69911;BME280;63555;49.920;17.868;2023-01-04T16:34:32;98941.03;;;6.07;74.60
69911;BME280;63555;49.920;17.868;2023-01-04T16:39:32;98909.59;;;6.07;74.66
69911;BME280;63555;49.920;17.868;2023-01-04T16:44:33;98914.75;;;6.09;74.86
69911;BME280;63555;49.920;17.868;2023-01-04T16:49:33;98888.41;;;6.12;74.87
69911;BME280;63555;49.920;17.868;2023-01-04T16:54:33;98907.56;;;6.12;74.98
69911;BME280;63555;49.920;17.868;2023-01-04T16:59:34;98890.84;;;6.15;74.87
69911;BME280;63555;49.920;17.868;2023-01-04T17:04:34;98881.13;;;6.17;74.64
69911;BME280;63555;49.920;17.868;2023-01-04T17:09:34;98875.91;;;6.17;75.14
69911;BME280;63555;49.920;17.868;2023-01-04T17:14:35;98871.50;;;6.17;75.88
69911;BME280;63555;49.920;17.868;2023-01-04T17:19:35;98876.75;;;6.17;74.71
69911;BME280;63555;49.920;17.868;2023-01-04T17:24:36;98890.78;;;6.16;75.09
69911;BME280;63555;49.920;17.868;2023-01-04T17:29:36;98889.75;;;6.19;74.73
69911;BME280;63555;49.920;17.868;2023-01-04T17:34:36;98888.56;;;6.24;75.48
69911;BME280;63555;49.920;17.868;2023-01-04T17:39:37;98868.38;;;6.26;74.72
69911;BME280;63555;49.920;17.868;2023-01-04T17:44:37;98865.75;;;6.26;75.01
69911;BME280;63555;49.920;17.868;2023-01-04T17:49:38;98869.31;;;6.25;74.75
69911;BME280;63555;49.920;17.868;2023-01-04T17:54:38;98865.75;;;6.26;75.08
69911;BME280;63555;49.920;17.868;2023-01-04T17:59:39;98850.03;;;6.26;74.84
69911;BME280;63555;49.920;17.868;2023-01-04T18:04:39;98813.28;;;6.28;75.46
69911;BME280;63555;49.920;17.868;2023-01-04T18:09:40;98794.22;;;6.26;75.25
69911;BME280;63555;49.920;17.868;2023-01-04T18:14:40;98790.75;;;6.25;75.41
69911;BME280;63555;49.920;17.868;2023-01-04T18:19:40;98782.88;;;6.25;75.34
69911;BME280;63555;49.920;17.868;2023-01-04T18:24:41;98781.88;;;6.28;75.83
69911;BME280;63555;49.920;17.868;2023-01-04T18:29:41;98756.44;;;6.30;75.53
69911;BME280;63555;49.920;17.868;2023-01-04T18:34:41;98756.34;;;6.31;75.61
69911;BME280;63555;49.920;17.868;2023-01-04T18:39:42;98750.00;;;6.35;75.66
69911;BME280;63555;49.920;17.868;2023-01-04T18:44:42;98742.81;;;6.39;75.54
69911;BME280;63555;49.920;17.868;2023-01-04T18:49:43;98755.72;;;6.42;75.92
69911;BME280;63555;49.920;17.868;2023-01-04T18:54:43;98738.97;;;6.45;75.79
69911;BME280;63555;49.920;17.868;2023-01-04T18:59:44;98705.69;;;6.47;75.98
69911;BME280;63555;49.920;17.868;2023-01-04T19:04:48;98695.19;;;6.47;75.73
69911;BME280;63555;49.920;17.868;2023-01-04T19:09:49;98684.72;;;6.47;75.66
69911;BME280;63555;49.920;17.868;2023-01-04T19:14:50;98701.19;;;6.49;76.08
69911;BME280;63555;49.920;17.868;2023-01-04T19:19:50;98696.63;;;6.52;75.80
69911;BME280;63555;49.920;17.868;2023-01-04T19:24:51;98668.72;;;6.51;75.73
69911;BME280;63555;49.920;17.868;2023-01-04T19:29:51;98645.34;;;6.34;76.26
69911;BME280;63555;49.920;17.868;2023-01-04T19:34:52;98650.38;;;6.23;76.62
69911;BME280;63555;49.920;17.868;2023-01-04T19:39:52;98636.34;;;6.24;77.17
69911;BME280;63555;49.920;17.868;2023-01-04T19:44:53;98671.78;;;6.29;77.06
69911;BME280;63555;49.920;17.868;2023-01-04T19:49:53;98643.38;;;6.37;77.23
69911;BME280;63555;49.920;17.868;2023-01-04T19:54:53;98625.69;;;6.41;76.46
69911;BME280;63555;49.920;17.868;2023-01-04T19:59:54;98644.50;;;6.48;76.75
69911;BME280;63555;49.920;17.868;2023-01-04T20:04:54;98648.25;;;6.58;76.37
69911;BME280;63555;49.920;17.868;2023-01-04T20:09:54;98654.78;;;6.65;76.88
69911;BME280;63555;49.920;17.868;2023-01-04T20:14:55;98658.81;;;6.70;76.73
69911;BME280;63555;49.920;17.868;2023-01-04T20:19:55;98647.28;;;6.73;76.61
69911;BME280;63555;49.920;17.868;2023-01-04T20:24:57;98648.13;;;6.74;76.85
69911;BME280;63555;49.920;17.868;2023-01-04T20:29:57;98652.44;;;6.75;75.97
69911;BME280;63555;49.920;17.868;2023-01-04T20:34:57;98644.69;;;6.73;76.60
69911;BME280;63555;49.920;17.868;2023-01-04T20:39:58;98619.31;;;6.74;76.18
69911;BME280;63555;49.920;17.868;2023-01-04T20:44:58;98621.09;;;6.73;76.60
69911;BME280;63555;49.920;17.868;2023-01-04T20:49:58;98603.69;;;6.72;76.49
69911;BME280;63555;49.920;17.868;2023-01-04T20:54:59;98582.72;;;6.72;76.42
69911;BME280;63555;49.920;17.868;2023-01-04T20:59:59;98581.78;;;6.73;77.00
69911;BME280;63555;49.920;17.868;2023-01-04T21:05:00;98564.28;;;6.74;76.87
69911;BME280;63555;49.920;17.868;2023-01-04T21:10:00;98562.78;;;6.69;77.07
69911;BME280;63555;49.920;17.868;2023-01-04T21:15:01;98581.13;;;6.69;77.07
69911;BME280;63555;49.920;17.868;2023-01-04T21:20:01;98580.28;;;6.69;77.05
69911;BME280;63555;49.920;17.868;2023-01-04T21:25:02;98540.16;;;6.68;77.39
69911;BME280;63555;49.920;17.868;2023-01-04T21:30:03;98519.09;;;6.70;76.94
69911;BME280;63555;49.920;17.868;2023-01-04T21:35:04;98512.06;;;6.70;77.63
69911;BME280;63555;49.920;17.868;2023-01-04T21:40:05;98506.53;;;6.75;78.18
69911;BME280;63555;49.920;17.868;2023-01-04T21:45:06;98493.78;;;6.83;77.76
69911;BME280;63555;49.920;17.868;2023-01-04T21:50:08;98483.94;;;6.87;77.53
69911;BME280;63555;49.920;17.868;2023-01-04T21:55:08;98495.38;;;6.86;78.25
69911;BME280;63555;49.920;17.868;2023-01-04T22:00:10;98484.03;;;6.85;77.91
69911;BME280;63555;49.920;17.868;2023-01-04T22:05:11;98495.38;;;6.86;77.74
69911;BME280;63555;49.920;17.868;2023-01-04T22:10:11;98487.78;;;6.81;77.82
69911;BME280;63555;49.920;17.868;2023-01-04T22:15:11;98510.44;;;6.82;77.94
69911;BME280;63555;49.920;17.868;2023-01-04T22:20:12;98493.13;;;6.80;78.62
69911;BME280;63555;49.920;17.868;2023-01-04T22:25:12;98488.94;;;6.77;78.72
69911;BME280;63555;49.920;17.868;2023-01-04T22:30:13;98491.66;;;6.76;78.79
69911;BME280;63555;49.920;17.868;2023-01-04T22:35:13;98495.97;;;6.77;78.97
69911;BME280;63555;49.920;17.868;2023-01-04T22:40:14;98499.50;;;6.76;78.55
69911;BME280;63555;49.920;17.868;2023-01-04T22:45:14;98513.34;;;6.78;78.38
69911;BME280;63555;49.920;17.868;2023-01-04T22:50:15;98511.19;;;6.84;78.68
69911;BME280;63555;49.920;17.868;2023-01-04T22:55:15;98500.31;;;6.90;78.75
69911;BME280;63555;49.920;17.868;2023-01-04T23:00:15;98503.41;;;6.97;78.57
69911;BME280;63555;49.920;17.868;2023-01-04T23:05:16;98480.44;;;7.00;78.48
69911;BME280;63555;49.920;17.868;2023-01-04T23:10:16;98463.69;;;7.03;78.34
69911;BME280;63555;49.920;17.868;2023-01-04T23:15:17;98455.50;;;7.08;79.15
69911;BME280;63555;49.920;17.868;2023-01-04T23:20:17;98453.22;;;7.16;78.43
69911;BME280;63555;49.920;17.868;2023-01-04T23:25:17;98453.84;;;7.19;78.71
69911;BME280;63555;49.920;17.868;2023-01-04T23:30:18;98440.22;;;7.27;78.04
69911;BME280;63555;49.920;17.868;2023-01-04T23:35:18;98417.97;;;7.32;78.77
69911;BME280;63555;49.920;17.868;2023-01-04T23:40:19;98399.41;;;7.35;78.05
69911;BME280;63555;49.920;17.868;2023-01-04T23:45:19;98414.22;;;7.37;78.28
69911;BME280;63555;49.920;17.868;2023-01-04T23:50:19;98400.88;;;7.40;78.85
69911;BME280;63555;49.920;17.868;2023-01-04T23:55:21;98369.94;;;7.45;78.63
